CYEK

Details ICAO CYEK (YEK)
Name ARVIAT
Region Canada
Timezone America/Rankin_Inlet (UTC-6.0)
Plans Departing 3
Arriving 2
Stats Elevation 32 ft / 10 m (AMSL)
Location 61.094167° -94.070834°
Runways 1
Magnetic Variation 3.188° W
Sunrise 2017-12-15 15:26:12 UTC / 2017-12-15 09:26:12 Local
Sunset 2017-12-15 20:59:42 UTC / 2017-12-15 14:59:42 Local
Advertisement - Login to hide

Runways

ID Width Length Bearing (true) Bearing (mag) Surface Threshold Offset Overrun Length
15T 100 ft / 30 m 3,991 ft / 1,216 m 149.03° 152.22° Gravel 0 ft / 0 m 0 ft / 0 m
33T 100 ft / 30 m 3,991 ft / 1,216 m 329.05° 332.24° Gravel 0 ft / 0 m 0 ft / 0 m

Map

Weather


0- 5 10 15 20 25 30 35+ Temperature / ° C

Clouds and Precipitation
Forecast for 2017-12-15 12:00 UTC. Updated an hour ago

Ground ~20,000 ft ~40,000 ft Winds

METAR

CYEK 151039Z AUTO 34015KT 4SM -SN SCT005 M25/M28 A2998 RMK SLP156

TAF

TAF AMD TAF AMD CYEK 151026Z 1510/1518 34012KT P6SM SCT005 TEMPO 1510/1516 3SM IC BR BKN005 FM151600 32012KT P6SM FEW010 RMK FCST BASED ON AUTO OBS. NXT FCST BY 151200Z

Frequencies

Recorded 128.70 MHz AWOS
Warning: Do not use this data for real-world aviation or navigation. No guarantee of current accuracy is given.